Latest Weather Observations for Mount Gambier

IDS60801

Issued at 10:01 am CST Monday 3 August 2015 (issued every 30 minutes, with the page automatically refreshed every 10 minutes)

About weather observations | Map of weather stations | Latest weather observations for SA | Other Formats
Station Details ID: 026021 Name: MOUNT GAMBIER AERO Lat: -37.75 Lon: 140.77 Height: 63.0 m
Data from the previous 72 hours. | See also: Recent months at Mount Gambier
Date/Time
CST
Temp
°C
App
Temp
°C
Dew
Point
Rel
Hum
%
Delta-T
°C
Wind Press
QNH
hPa
Press
MSL
hPa
Rain
since 9 am
mm
Dir
 
Spd
km/h
Gust
km/h
Spd
kts
Gust
kts
03/09:30am 8.5 3.8 3.4 70 2.2 SW 17 26 9 14 1021.3 1021.4 0.0
03/09:00am 6.4 1.2 3.6 82 1.2 WSW 20 28 11 15 1020.9 1021.0 7.2
03/08:30am 6.3 0.8 4.0 85 1.0 SW 22 32 12 17 1020.5 1020.6 7.0
03/08:00am 6.7 1.7 3.4 79 1.4 SW 19 26 10 14 1020.1 1020.2 6.8
03/07:40am 6.3 -0.4 3.7 83 1.1 SW 28 46 15 25 1019.9 1020.0 6.8
03/07:30am 6.3 -0.4 3.7 83 1.1 SW 28 37 15 20 1019.5 1019.6 6.8
03/07:00am 6.9 1.8 2.8 75 1.7 WSW 19 28 10 15 1019.0 1019.1 6.8
03/06:30am 6.5 1.1 1.2 69 2.1 SW 19 28 10 15 1018.3 1018.4 6.8
03/06:08am 7.1 -0.3 2.0 70 2.1 SW 30 48 16 26 1018.1 1018.2 6.8
03/06:00am 7.5 -0.3 1.9 67 2.3 SW 32 48 17 26 1018.0 1018.1 6.8
03/05:30am 7.0 0.7 3.5 78 1.5 WSW 26 35 14 19 1017.4 1017.5 6.8
03/05:00am 7.2 -0.8 3.9 79 1.4 WSW 35 61 19 33 1017.0 1017.1 6.8
03/04:58am 7.2 -0.3 3.7 78 1.5 WSW 32 61 17 33 1017.0 1017.1 6.8
03/04:54am 7.4 1.6 4.2 80 1.4 WSW 24 61 13 33 1016.8 1016.9 6.8
03/04:30am 7.2 0.5 5.4 88 0.8 WSW 30 43 16 23 1016.4 1016.5 6.8
03/04:27am 7.3 0.2 5.5 88 0.8 WSW 32 44 17 24 1016.4 1016.5 6.8
03/04:12am 7.4 0.7 5.4 87 0.9 SW 30 48 16 26 1016.2 1016.3 6.8
03/04:10am 7.5 1.1 5.3 86 1.0 SW 28 48 15 26 1016.3 1016.4 6.6
03/04:00am 7.9 2.0 4.0 76 1.7 W 24 32 13 17 1015.8 1015.9 6.2
03/03:30am 8.2 0.7 4.3 76 1.7 WSW 33 52 18 28 1015.7 1015.8 6.2
03/03:28am 8.4 1.0 4.0 74 1.9 WSW 32 52 17 28 1015.7 1015.8 6.2
03/03:00am 8.2 1.6 4.1 75 1.8 WSW 28 41 15 22 1015.6 1015.7 6.2
03/02:30am 8.0 1.8 6.3 89 0.8 WSW 28 37 15 20 1015.4 1015.5 6.2
03/02:29am 8.0 1.8 6.3 89 0.8 WSW 28 37 15 20 1015.4 1015.5 6.2
03/02:14am 8.1 0.6 6.1 87 0.9 WSW 35 48 19 26 1015.4 1015.5 6.2
03/02:00am 8.0 1.5 6.3 89 0.8 WSW 30 46 16 25 1015.2 1015.3 6.0
03/01:30am 8.4 2.3 6.7 89 0.8 W 28 35 15 19 1015.1 1015.2 5.8
03/01:00am 8.3 1.3 5.9 85 1.1 WSW 32 44 17 24 1015.0 1015.1 5.6
03/12:49am 8.3 -0.4 6.1 86 1.0 WSW 41 59 22 32 1014.9 1015.0 5.6
03/12:31am 8.6 1.6 6.7 88 0.9 W 33 54 18 29 1014.8 1014.9 5.4
03/12:30am 8.7 1.6 6.5 86 1.0 W 33 50 18 27 1014.9 1015.0 5.4
03/12:00am 8.4 0.7 5.5 82 1.3 W 35 46 19 25 1014.6 1014.7 5.0
 
Date/Time
CST
Temp
°C
App
Temp
°C
Dew
Point
Rel
Hum
%
Delta-T
°C
Wind Press
QNH
hPa
Press
MSL
hPa
Rain
since 9 am
mm
Dir
 
Spd
km/h
Gust
km/h
Spd
kts
Gust
kts
02/11:45pm 8.5 1.5 6.8 89 0.8 W 33 57 18 31 1014.7 1014.8 5.0
02/11:30pm 8.3 1.4 6.3 87 0.9 W 32 41 17 22 1014.5 1014.6 5.0
02/11:26pm 8.2 1.1 6.2 87 0.9 W 33 46 18 25 1014.5 1014.6 5.0
02/11:15pm 8.5 1.0 6.1 85 1.1 W 35 54 19 29 1014.5 1014.6 5.0
02/11:09pm 9.0 1.3 5.5 79 1.6 W 35 54 19 29 1014.7 1014.8 4.6
02/11:00pm 9.1 0.9 4.9 75 1.9 W 37 52 20 28 1014.4 1014.5 4.6
02/10:30pm 8.6 0.6 5.7 82 1.3 W 37 54 20 29 1014.3 1014.4 4.4
02/10:26pm 8.6 1.0 5.7 82 1.3 W 35 54 19 29 1014.3 1014.4 4.4
02/10:00pm 8.2 1.8 5.1 81 1.4 WNW 28 39 15 21 1014.4 1014.5 4.4
02/09:31pm 8.6 1.4 5.7 82 1.3 WNW 33 54 18 29 1014.6 1014.7 4.2
02/09:30pm 8.6 1.5 5.5 81 1.4 WNW 32 41 17 22 1014.6 1014.7 4.2
02/09:22pm 8.2 1.1 5.5 83 1.2 WNW 32 41 17 22 1014.3 1014.4 4.2
02/09:05pm 8.7 1.7 6.1 84 1.2 WNW 32 54 17 29 1014.5 1014.6 4.2
02/09:00pm 8.7 1.7 5.9 82 1.3 W 32 37 17 20 1014.4 1014.5 3.8
02/08:49pm 8.7 2.3 5.1 78 1.6 W 28 50 15 27 1014.3 1014.4 3.8
02/08:30pm 8.4 2.6 4.3 75 1.8 WNW 24 30 13 16 1014.0 1014.1 3.8
02/08:00pm 8.8 2.4 5.0 77 1.7 WNW 28 37 15 20 1014.2 1014.3 3.8
02/07:31pm 8.9 1.6 5.6 80 1.5 W 33 56 18 30 1013.9 1014.0 3.8
02/07:30pm 9.0 1.7 5.5 79 1.6 W 33 48 18 26 1013.9 1014.0 3.8
02/07:00pm 8.4 2.4 5.3 81 1.4 WNW 26 33 14 18 1013.8 1013.9 3.8
02/06:30pm 8.4 2.5 6.0 85 1.1 W 26 35 14 19 1013.7 1013.8 3.6
02/06:00pm 8.4 3.2 5.5 82 1.3 WNW 22 33 12 18 1013.3 1013.4 3.4
02/05:30pm 8.5 4.2 5.4 81 1.4 WNW 17 30 9 16 1013.4 1013.5 3.2
02/05:00pm 8.7 3.5 5.6 81 1.4 WNW 22 32 12 17 1012.9 1013.0 3.2
02/04:33pm 8.7 2.6 6.5 86 1.0 WNW 28 39 15 21 1012.8 1012.9 3.2
02/04:30pm 8.6 2.2 6.9 89 0.8 W 30 41 16 22 1012.8 1012.9 3.2
02/04:14pm 9.0 3.1 7.5 90 0.7 WNW 28 46 15 25 1012.8 1012.9 3.2
02/04:12pm 9.1 3.6 7.4 89 0.8 WNW 26 41 14 22 1012.7 1012.8 3.0
02/04:00pm 9.3 3.3 7.2 87 1.0 WNW 28 35 15 19 1012.4 1012.5 2.6
02/03:50pm 9.2 2.9 7.5 89 0.8 W 30 41 16 22 1012.4 1012.5 2.6
02/03:42pm 9.3 2.5 7.8 90 0.7 W 33 52 18 28 1012.4 1012.5 2.6
02/03:30pm 9.1 1.5 7.4 89 0.8 W 37 52 20 28 1012.5 1012.6 2.6
02/03:28pm 9.4 2.5 7.3 87 1.0 W 33 52 18 28 1012.4 1012.5 2.6
02/03:27pm 9.5 2.8 7.4 87 1.0 W 32 52 17 28 1012.4 1012.5 2.6
02/03:00pm 10.6 4.0 7.7 82 1.4 W 32 41 17 22 1012.0 1012.1 2.2
02/02:46pm 10.1 3.5 8.5 90 0.8 WSW 33 43 18 23 1012.0 1012.1 2.2
02/02:30pm 9.7 1.1 8.0 89 0.8 W 43 69 23 37 1012.0 1012.1 2.2
02/02:20pm 10.2 3.7 9.0 92 0.6 W 33 52 18 28 1012.1 1012.2 1.8
02/02:00pm 10.3 2.7 9.1 92 0.6 W 39 57 21 31 1011.6 1011.6 1.2
02/01:30pm 11.5 4.9 8.7 83 1.4 WNW 33 52 18 28 1011.2 1011.2 0.8
02/01:15pm 10.5 2.5 7.6 82 1.4 WNW 39 59 21 32 1011.4 1011.4 0.8
02/01:00pm 9.9 0.2 7.6 85 1.1 W 48 72 26 39 1011.5 1011.5 0.8
02/12:57pm 10.4 1.1 7.7 83 1.3 WNW 46 72 25 39 1011.7 1011.7 0.6
02/12:30pm 12.5 4.9 5.9 64 3.1 WNW 35 69 19 37 1011.3 1011.3 0.2
02/12:00pm 12.3 4.3 5.9 65 3.0 WNW 37 54 20 29 1011.9 1012.0 0.2
02/11:39am 12.6 5.1 6.5 66 2.9 WNW 35 56 19 30 1012.1 1012.2 0.2
02/11:30am 12.8 6.0 6.8 67 2.9 WNW 32 41 17 22 1012.2 1012.3 0.2
02/11:11am 12.6 5.8 6.8 68 2.8 WNW 32 50 17 27 1012.4 1012.5 0.2
02/11:00am 11.6 6.1 7.5 76 2.0 NW 26 39 14 21 1012.6 1012.7 0.2
02/10:30am 11.0 4.8 7.9 81 1.5 NW 30 39 16 21 1012.9 1013.0 0.2
02/10:00am 10.4 4.9 7.5 82 1.4 NW 26 33 14 18 1013.0 1013.1 0.2
02/09:30am 10.0 4.4 7.0 81 1.4 NW 26 35 14 19 1012.7 1012.8 0.0
02/09:00am 8.9 4.4 6.8 87 1.0 NNW 20 28 11 15 1012.9 1013.0 1.0
02/08:30am 7.4 2.8 6.3 93 0.5 NNW 20 26 11 14 1013.0 1013.1 1.0
02/08:00am 6.6 2.4 5.9 95 0.3 N 17 26 9 14 1013.0 1013.1 1.0
02/07:30am 6.3 2.5 5.9 97 0.2 NNW 15 22 8 12 1013.3 1013.4 1.0
02/07:00am 6.5 1.7 5.6 94 0.4 NNW 20 30 11 16 1013.0 1013.1 1.0
02/06:30am 6.2 1.3 5.1 93 0.5 NNW 20 28 11 15 1012.7 1012.8 0.8
02/06:00am 5.5 1.1 4.8 95 0.3 NNW 17 26 9 14 1012.9 1013.0 0.8
02/05:30am 5.8 1.0 4.9 94 0.4 NNW 19 26 10 14 1013.1 1013.2 0.8
02/05:00am 5.3 0.9 4.6 95 0.3 NNW 17 24 9 13 1013.2 1013.3 0.8
02/04:30am 6.2 3.0 5.3 94 0.4 NW 11 15 6 8 1013.5 1013.6 0.8
02/04:00am 6.4 1.6 4.8 89 0.7 NW 19 24 10 13 1013.5 1013.6 0.8
02/03:30am 6.0 2.0 5.1 94 0.4 NNW 15 20 8 11 1013.8 1013.9 0.8
02/03:00am 6.7 2.8 5.3 91 0.6 NW 15 20 8 11 1014.3 1014.4 0.6
02/02:30am 6.4 2.0 5.0 91 0.6 NNW 17 19 9 10 1014.4 1014.5 0.4
02/02:00am 6.4 2.5 5.3 93 0.5 NNW 15 19 8 10 1014.5 1014.6 0.4
02/01:30am 6.4 2.4 5.0 91 0.6 NW 15 20 8 11 1014.9 1015.0 0.2
02/01:00am 6.4 1.7 5.0 91 0.6 NNW 19 26 10 14 1015.1 1015.2 0.2
02/12:30am 6.9 1.2 4.8 86 0.9 NNW 24 32 13 17 1015.2 1015.3 0.2
02/12:00am 6.5 1.9 3.9 83 1.1 NNW 17 26 9 14 1015.3 1015.4 0.2
 
Date/Time
CST
Temp
°C
App
Temp
°C
Dew
Point
Rel
Hum
%
Delta-T
°C
Wind Press
QNH
hPa
Press
MSL
hPa
Rain
since 9 am
mm
Dir
 
Spd
km/h
Gust
km/h
Spd
kts
Gust
kts
01/11:30pm 6.6 2.0 3.5 80 1.3 N 17 24 9 13 1015.6 1015.7 0.2
01/11:00pm 6.2 1.2 3.8 85 1.0 N 19 28 10 15 1015.6 1015.7 0.2
01/10:30pm 6.4 2.3 4.1 85 1.0 N 15 19 8 10 1015.8 1015.9 0.2
01/10:00pm 6.8 2.7 4.3 84 1.1 NNW 15 20 8 11 1016.1 1016.2 0.2
01/09:30pm 6.6 2.8 3.8 82 1.2 NNW 13 17 7 9 1016.3 1016.4 0.2
01/09:00pm 6.1 2.6 3.7 84 1.0 NNW 11 13 6 7 1016.1 1016.2 0.2
01/08:30pm 7.1 3.2 3.6 78 1.5 NW 13 15 7 8 1016.2 1016.3 0.2
01/08:00pm 6.2 2.7 3.6 83 1.1 NW 11 13 6 7 1016.3 1016.4 0.2
01/07:30pm 7.1 3.6 3.3 77 1.6 NW 11 11 6 6 1016.1 1016.2 0.2
01/07:00pm 6.9 3.1 3.9 81 1.3 NNW 13 17 7 9 1016.0 1016.1 0.2
01/06:30pm 7.0 3.6 4.2 82 1.2 NNW 11 13 6 7 1015.8 1015.9 0.2
01/06:00pm 7.6 4.7 4.6 81 1.3 NNW 9 13 5 7 1015.6 1015.7 0.2
01/05:30pm 8.0 5.5 4.6 79 1.5 W 7 7 4 4 1015.5 1015.6 0.2
01/05:00pm 8.7 3.8 3.9 72 2.1 W 19 26 10 14 1015.7 1015.8 0.2
01/04:30pm 9.4 5.9 3.7 67 2.5 WNW 11 15 6 8 1015.4 1015.5 0.2
01/04:00pm 9.8 5.6 3.6 65 2.7 W 15 19 8 10 1015.3 1015.4 0.2
01/03:30pm 10.4 6.1 3.0 60 3.2 WNW 15 17 8 9 1015.2 1015.3 0.2
01/03:00pm 10.4 5.6 2.7 59 3.3 WNW 17 24 9 13 1015.2 1015.3 0.2
01/02:30pm 10.5 5.6 2.0 55 3.6 WNW 17 24 9 13 1014.8 1014.9 0.2
01/02:00pm 10.9 5.5 1.4 52 4.0 W 19 28 10 15 1014.8 1014.9 0.2
01/01:30pm 10.5 6.1 2.9 59 3.3 W 15 19 8 10 1015.2 1015.3 0.2
01/01:00pm 10.6 5.5 1.0 51 4.0 WSW 17 20 9 11 1015.2 1015.3 0.2
01/12:30pm 11.2 5.3 -0.8 43 4.8 SW 20 30 11 16 1015.4 1015.5 0.2
01/12:00pm 10.6 5.7 -0.7 45 4.5 WSW 15 20 8 11 1015.6 1015.7 0.2
01/11:30am 9.8 4.4 1.1 54 3.6 SW 19 28 10 15 1015.9 1016.0 0.2
01/11:00am 9.9 4.1 -0.1 50 4.0 WSW 20 28 11 15 1015.9 1016.0 0.2
01/10:30am 9.8 6.1 2.2 59 3.2 SW 11 15 6 8 1015.6 1015.7 0.0
01/10:00am 8.4 5.2 3.3 70 2.2 SW 9 11 5 6 1015.4 1015.5 0.0
01/09:30am 7.8 4.8 4.1 77 1.6 WSW 9 9 5 5 1015.5 1015.6 0.0
01/09:00am 7.0 4.4 4.0 81 1.3 W 7 9 4 5 1015.1 1015.2 3.0
01/08:30am 6.4 3.3 3.6 82 1.2 WNW 9 11 5 6 1014.8 1014.9 3.0
01/08:00am 6.0 3.2 2.9 80 1.3 WNW 7 9 4 5 1014.3 1014.4 3.0
01/07:30am 6.3 2.2 2.4 76 1.6 WSW 13 17 7 9 1013.4 1013.5 3.0
01/07:00am 6.9 2.9 3.1 77 1.6 WSW 13 17 7 9 1013.0 1013.1 3.0
01/06:30am 8.0 3.6 4.6 79 1.5 SW 17 22 9 12 1012.5 1012.6 3.0
01/06:00am 7.8 4.7 5.6 86 1.0 WSW 11 15 6 8 1012.0 1012.1 3.0
01/05:30am 7.5 4.4 5.7 88 0.8 WSW 11 13 6 7 1011.2 1011.3 3.0
01/05:00am 7.8 3.6 5.8 87 0.9 SW 17 24 9 13 1010.8 1010.9 3.0
01/04:41am 7.9 3.4 7.0 94 0.4 SW 20 30 11 16 1010.6 1010.8 3.0
01/04:30am 8.0 3.1 7.1 94 0.4 SW 22 30 12 16 1010.6 1010.8 3.0
01/04:00am 8.3 2.8 7.5 95 0.4 SW 26 33 14 18 1010.0 1010.2 2.8
01/03:49am 8.5 3.3 7.4 93 0.5 SW 24 37 13 20 1009.8 1010.0 2.6
01/03:43am 8.6 3.5 7.5 93 0.5 SW 24 33 13 18 1009.6 1009.8 2.4
01/03:39am 8.7 3.2 7.4 91 0.6 SW 26 39 14 21 1009.4 1009.5 2.4
01/03:30am 8.7 2.9 7.9 95 0.4 SW 28 39 15 21 1009.3 1009.4 2.4
01/03:26am 8.8 2.7 8.2 96 0.3 SW 30 48 16 26 1009.3 1009.4 2.4
01/03:09am 9.4 3.4 8.6 95 0.4 WSW 30 44 16 24 1008.9 1009.0 1.8
01/03:00am 10.3 5.7 9.5 95 0.4 W 24 32 13 17 1008.8 1008.9 1.4
01/02:54am 10.3 4.9 9.5 95 0.4 W 28 39 15 21 1008.7 1008.8 1.2
01/02:38am 10.9 4.3 10.1 95 0.4 WNW 35 50 19 27 1008.7 1008.8 0.6
01/02:30am 11.0 4.7 9.8 92 0.6 NW 33 50 18 27 1008.2 1008.3 0.2
01/02:20am 11.1 5.3 9.5 90 0.8 NNW 30 41 16 22 1007.9 1008.0 0.0
01/02:03am 11.8 5.5 8.8 82 1.5 NNW 32 50 17 27 1007.7 1007.8 0.0
01/02:00am 12.0 6.0 8.6 80 1.7 NNW 30 44 16 24 1007.7 1007.8 0.0
01/01:30am 11.1 6.9 7.4 78 1.8 N 19 26 10 14 1007.5 1007.6 0.0
01/01:00am 11.1 5.5 7.1 76 1.9 N 26 37 14 20 1007.4 1007.5 0.0
01/12:30am 10.9 5.2 6.9 76 1.9 N 26 37 14 20 1007.8 1007.9 0.0
01/12:00am 10.6 4.5 6.6 76 1.9 N 28 43 15 23 1008.2 1008.3 0.0
 
Date/Time
CST
Temp
°C
App
Temp
°C
Dew
Point
Rel
Hum
%
Delta-T
°C
Wind Press
QNH
hPa
Press
MSL
hPa
Rain
since 9 am
mm
Dir
 
Spd
km/h
Gust
km/h
Spd
kts
Gust
kts
31/11:30pm 10.5 5.1 6.2 75 2.0 N 24 32 13 17 1008.7 1008.8 0.0
31/11:00pm 10.2 4.4 6.1 76 1.9 N 26 35 14 19 1009.0 1009.1 0.0
31/10:30pm 10.0 3.4 5.9 75 1.9 N 30 44 16 24 1009.7 1009.9 0.0
31/10:00pm 9.8 3.4 5.4 74 2.0 N 28 37 15 20 1010.1 1010.3 0.0
31/09:30pm 9.7 3.7 5.3 74 2.0 N 26 35 14 19 1010.4 1010.6 0.0
31/09:00pm 9.6 3.9 4.9 72 2.1 N 24 35 13 19 1011.3 1011.4 0.0
31/08:30pm 9.3 4.0 4.8 73 2.0 N 22 30 12 16 1011.5 1011.6 0.0
31/08:00pm 9.4 4.4 4.5 71 2.2 N 20 28 11 15 1011.9 1012.0 0.0
31/07:30pm 9.3 4.8 4.1 70 2.3 N 17 24 9 13 1012.4 1012.5 0.0
31/07:00pm 9.2 4.8 4.5 72 2.1 N 17 26 9 14 1012.8 1012.9 0.0
31/06:30pm 9.3 4.8 4.1 70 2.3 N 17 24 9 13 1013.1 1013.2 0.0
31/06:00pm 9.3 4.8 4.1 70 2.3 N 17 24 9 13 1013.2 1013.3 0.0
31/05:30pm 9.2 5.1 4.2 71 2.2 N 15 22 8 12 1013.6 1013.7 0.0
31/05:00pm 9.4 4.8 3.9 68 2.4 N 17 24 9 13 1014.2 1014.3 0.0
31/04:30pm 9.5 4.9 3.5 66 2.6 NNW 17 28 9 15 1014.6 1014.7 0.0
31/04:00pm 9.8 5.1 3.1 63 2.9 NNW 17 28 9 15 1014.8 1014.9 0.0
31/03:30pm 9.7 4.5 3.5 65 2.7 N 20 33 11 18 1014.8 1014.9 0.0
31/03:00pm 10.2 4.9 2.8 60 3.2 N 20 32 11 17 1014.7 1014.8 0.0
31/02:30pm 10.1 4.0 2.6 59 3.2 NNW 24 35 13 19 1014.9 1015.0 0.0
31/02:00pm 10.2 5.1 2.8 60 3.2 N 19 30 10 16 1015.4 1015.5 0.0
31/01:30pm 10.3 4.6 2.6 59 3.3 N 22 32 12 17 1016.1 1016.2 0.0
31/01:00pm 11.0 5.2 2.1 54 3.8 N 22 32 12 17 1016.6 1016.7 0.0
31/12:30pm 10.5 4.7 2.3 57 3.5 NNW 22 32 12 17 1017.5 1017.6 0.0
31/12:00pm 10.3 4.0 1.4 54 3.7 N 24 35 13 19 1018.2 1018.3 0.0
31/11:30am 10.0 3.6 1.0 53 3.7 NNW 24 35 13 19 1018.9 1019.0 0.0
31/11:00am 10.5 4.3 2.3 57 3.5 NNW 24 33 13 18 1019.3 1019.4 0.0
31/10:30am 10.2 5.1 3.0 61 3.1 NNW 19 28 10 15 1019.8 1019.9 0.0

Other Formats:

Comma delimited format used in spreadsheet applications
http://www.bom.gov.au/fwo/IDS60801/IDS60801.94821.axf

JavaScript Object Notation format (JSON) in row-major order
http://www.bom.gov.au/fwo/IDS60801/IDS60801.94821.json